createdAt,value
2022-09-21T00:04:33.242Z,79.16
2022-09-21T00:09:34.830Z,79.43
2022-09-21T00:14:36.376Z,79.97
2022-09-21T00:19:38.089Z,80.18
2022-09-21T00:24:39.762Z,80.20
2022-09-21T00:29:41.286Z,80.53
2022-09-21T00:34:43.097Z,80.48
2022-09-21T00:39:44.664Z,80.30
2022-09-21T00:44:46.338Z,79.86
2022-09-21T00:49:51.727Z,80.44
2022-09-21T00:54:57.688Z,80.07
2022-09-21T01:00:02.707Z,80.05
2022-09-21T01:05:07.279Z,80.10
2022-09-21T01:10:14.795Z,80.43
2022-09-21T01:15:46.330Z,80.28
2022-09-21T01:21:19.051Z,80.17
2022-09-21T01:26:54.541Z,79.74
2022-09-21T01:32:08.254Z,79.68
2022-09-21T01:37:16.140Z,79.38
2022-09-21T01:42:20.360Z,79.46
2022-09-21T01:47:22.783Z,79.37
2022-09-21T01:52:32.017Z,79.75
2022-09-21T01:57:43.382Z,79.46
2022-09-21T02:02:51.879Z,78.71
2022-09-21T02:07:53.998Z,79.51
2022-09-21T02:13:01.345Z,80.03
2022-09-21T02:18:08.775Z,79.55
2022-09-21T02:23:37.152Z,79.87
2022-09-21T02:28:53.323Z,79.75
2022-09-21T02:34:02.815Z,79.42
2022-09-21T02:39:12.267Z,79.44
2022-09-21T02:44:29.203Z,79.28
2022-09-21T02:49:36.005Z,78.84
2022-09-21T02:54:40.500Z,78.79
2022-09-21T02:59:42.722Z,78.84
2022-09-21T03:04:50.205Z,79.21
2022-09-21T03:09:51.860Z,78.93
2022-09-21T03:14:53.933Z,79.13
2022-09-21T03:19:55.801Z,79.12
2022-09-21T03:24:57.621Z,78.62
2022-09-21T03:30:02.177Z,78.25
2022-09-21T03:35:04.903Z,78.75
2022-09-21T03:40:06.917Z,78.98
2022-09-21T03:45:10.478Z,79.14
2022-09-21T03:50:12.086Z,79.47
2022-09-21T03:55:13.759Z,79.21
2022-09-21T04:00:15.583Z,79.42
2022-09-21T04:05:17.915Z,78.95
2022-09-21T04:10:22.006Z,78.41
2022-09-21T04:15:24.062Z,78.54
2022-09-21T04:20:26.076Z,78.67
2022-09-21T04:25:28.048Z,78.04
2022-09-21T04:30:33.098Z,78.22
2022-09-21T04:35:37.446Z,78.31
2022-09-21T04:40:39.366Z,78.44
2022-09-21T04:45:41.051Z,79.05
2022-09-21T04:50:42.766Z,78.54
2022-09-21T04:55:46.411Z,78.75
2022-09-21T05:00:53.007Z,78.63
2022-09-21T05:05:56.635Z,78.88
2022-09-21T05:10:58.195Z,79.54
2022-09-21T05:15:59.827Z,79.03
2022-09-21T05:21:03.338Z,79.23
2022-09-21T05:26:05.654Z,80.02
2022-09-21T05:31:31.606Z,80.17
2022-09-21T05:36:33.219Z,79.77
2022-09-21T05:41:35.241Z,79.89
2022-09-21T05:46:43.120Z,79.75
2022-09-21T05:51:58.148Z,80.29
2022-09-21T05:57:19.887Z,80.54
2022-09-21T06:02:30.464Z,79.98
2022-09-21T06:07:32.118Z,80.59
2022-09-21T06:12:33.875Z,80.39
2022-09-21T06:17:35.535Z,80.23
2022-09-21T06:22:37.073Z,80.06
2022-09-21T06:27:38.650Z,81.08
2022-09-21T06:32:40.283Z,81.02
2022-09-21T06:37:42.056Z,80.80
2022-09-21T06:42:43.599Z,80.52
2022-09-21T06:47:48.339Z,80.58
2022-09-21T06:52:50.091Z,81.38
2022-09-21T06:57:51.877Z,81.92
2022-09-21T07:02:53.461Z,83.15
2022-09-21T07:07:58.903Z,82.91
2022-09-21T07:13:05.170Z,83.41
2022-09-21T07:18:16.215Z,83.32
2022-09-21T07:23:20.023Z,82.80
2022-09-21T07:28:21.906Z,82.07
2022-09-21T07:33:24.662Z,82.32
2022-09-21T07:38:26.304Z,81.16
2022-09-21T07:43:28.385Z,80.11
2022-09-21T07:48:31.111Z,79.81
2022-09-21T07:53:37.767Z,78.32
2022-09-21T07:58:59.116Z,77.91
2022-09-21T08:04:01.167Z,76.32
2022-09-21T08:09:03.786Z,75.76
2022-09-21T08:14:05.511Z,75.36
2022-09-21T08:19:07.320Z,71.52
2022-09-21T08:24:09.996Z,70.55
2022-09-21T08:29:17.483Z,67.89
2022-09-21T08:34:19.859Z,63.59
2022-09-21T08:39:21.506Z,63.87
2022-09-21T08:44:33.308Z,60.90
2022-09-21T08:49:38.011Z,59.60
2022-09-21T08:55:07.566Z,55.18
2022-09-21T09:00:19.603Z,53.73
2022-09-21T09:05:55.248Z,52.49
2022-09-21T09:11:21.641Z,51.95
2022-09-21T09:16:38.978Z,52.51
2022-09-21T09:21:42.989Z,52.27
2022-09-21T09:26:47.666Z,51.83
2022-09-21T09:31:51.801Z,52.27
2022-09-21T09:37:14.361Z,51.37
2022-09-21T09:42:31.170Z,50.67
2022-09-21T09:48:03.229Z,50.10
2022-09-21T09:53:06.939Z,49.18
2022-09-21T09:58:18.279Z,48.05
2022-09-21T10:03:22.823Z,47.71
2022-09-21T10:08:36.635Z,46.98
2022-09-21T10:13:41.509Z,46.71
2022-09-21T10:18:56.450Z,45.34
2022-09-21T10:24:18.788Z,44.23
2022-09-21T10:29:23.258Z,44.51
2022-09-21T10:34:27.930Z,44.17
2022-09-21T10:39:33.782Z,46.27
2022-09-21T10:44:41.613Z,47.38
2022-09-21T10:49:47.728Z,47.14
2022-09-21T10:54:52.306Z,46.77
2022-09-21T10:59:54.319Z,46.24
2022-09-21T11:05:03.191Z,46.08
2022-09-21T11:10:34.180Z,46.11
2022-09-21T11:15:54.463Z,45.57
2022-09-21T11:21:20.123Z,45.00
2022-09-21T11:26:25.437Z,46.65
2022-09-21T11:31:41.876Z,46.30
2022-09-21T11:37:11.598Z,45.46
2022-09-21T11:42:42.400Z,46.43
2022-09-21T11:47:59.037Z,46.86
2022-09-21T11:53:33.200Z,46.05
2022-09-21T11:58:43.746Z,46.64
2022-09-21T12:04:27.476Z,46.80
2022-09-21T12:10:07.408Z,45.65
2022-09-21T12:15:39.539Z,46.57
2022-09-21T12:20:58.511Z,47.06
2022-09-21T12:26:03.860Z,47.86
2022-09-21T12:31:17.648Z,45.16
2022-09-21T12:36:44.517Z,44.27
2022-09-21T12:42:02.068Z,45.22
2022-09-21T12:47:11.472Z,47.17
2022-09-21T12:52:24.362Z,46.30
2022-09-21T12:58:14.544Z,47.77
2022-09-21T13:03:21.477Z,49.22
2022-09-21T13:08:33.149Z,49.75
2022-09-21T13:13:43.925Z,50.05
2022-09-21T13:18:45.642Z,49.94
2022-09-21T13:24:01.442Z,50.40
2022-09-21T13:29:21.757Z,51.19
2022-09-21T13:34:35.417Z,51.33
2022-09-21T13:39:42.897Z,51.46
2022-09-21T13:44:46.428Z,50.38
2022-09-21T13:49:54.075Z,49.45
2022-09-21T13:55:00.816Z,48.17
2022-09-21T14:00:08.983Z,47.61
2022-09-21T14:06:01.011Z,48.23
2022-09-21T14:11:31.707Z,48.22
2022-09-21T14:16:37.384Z,48.10
2022-09-21T14:21:39.901Z,47.91
2022-09-21T14:26:41.526Z,48.52
2022-09-21T14:31:43.911Z,47.84
2022-09-21T14:36:50.273Z,48.43
2022-09-21T14:41:56.478Z,48.94
2022-09-21T14:46:59.645Z,48.20
2022-09-21T14:52:27.843Z,50.60
2022-09-21T14:57:56.256Z,50.23
2022-09-21T15:03:29.412Z,49.40
2022-09-21T15:09:01.790Z,50.55
2022-09-21T15:14:33.886Z,49.85
2022-09-21T15:19:37.445Z,48.98
2022-09-21T15:24:50.481Z,49.92
2022-09-21T15:29:54.691Z,49.82
2022-09-21T15:35:02.143Z,50.10
2022-09-21T15:40:15.062Z,50.05
2022-09-21T15:45:18.715Z,50.08
2022-09-21T15:50:20.816Z,50.07
2022-09-21T15:55:23.690Z,50.26
2022-09-21T16:00:35.273Z,50.94
2022-09-21T16:05:51.572Z,50.01
2022-09-21T16:11:10.227Z,51.53
2022-09-21T16:16:14.248Z,51.48
2022-09-21T16:21:32.498Z,51.40
2022-09-21T16:26:36.942Z,51.73
2022-09-21T16:31:39.106Z,51.34
2022-09-21T16:36:42.007Z,51.24
2022-09-21T16:41:51.898Z,51.32
2022-09-21T16:46:59.522Z,51.04
2022-09-21T16:52:01.709Z,51.48
2022-09-21T16:57:06.477Z,52.13
2022-09-21T17:02:12.328Z,52.98
2022-09-21T17:07:14.983Z,53.56
2022-09-21T17:12:18.580Z,54.32
2022-09-21T17:17:24.699Z,53.86
2022-09-21T17:22:26.285Z,55.40
2022-09-21T17:27:29.144Z,55.63
2022-09-21T17:32:34.116Z,56.26
2022-09-21T17:37:38.351Z,58.28
2022-09-21T17:42:43.132Z,58.36
2022-09-21T17:47:44.975Z,59.86
2022-09-21T17:53:05.709Z,60.63
2022-09-21T17:58:48.697Z,60.96
2022-09-21T18:03:50.986Z,61.39
2022-09-21T18:08:53.836Z,61.72
2022-09-21T18:14:01.335Z,62.81
2022-09-21T18:19:22.649Z,63.84
2022-09-21T18:24:31.809Z,64.30
2022-09-21T18:29:42.128Z,65.06
2022-09-21T18:34:59.061Z,65.44
2022-09-21T18:40:12.977Z,66.25
2022-09-21T18:45:27.169Z,67.06
2022-09-21T18:50:43.263Z,67.85
2022-09-21T18:55:45.191Z,67.87
2022-09-21T19:00:47.849Z,68.59
2022-09-21T19:06:17.890Z,69.34
2022-09-21T19:11:38.506Z,69.63
2022-09-21T19:17:05.417Z,70.56
2022-09-21T19:22:18.878Z,71.03
2022-09-21T19:27:40.129Z,71.30
2022-09-21T19:32:46.984Z,71.63
2022-09-21T19:37:52.006Z,71.62
2022-09-21T19:43:31.150Z,72.04
2022-09-21T19:48:47.807Z,72.27
2022-09-21T19:54:14.704Z,72.19
2022-09-21T19:59:35.760Z,72.42
2022-09-21T20:04:50.878Z,72.47
2022-09-21T20:10:08.399Z,72.79
2022-09-21T20:15:19.602Z,73.33
2022-09-21T20:20:26.340Z,73.19
2022-09-21T20:25:35.118Z,73.65
2022-09-21T20:30:40.451Z,73.67
2022-09-21T20:35:43.752Z,73.75
2022-09-21T20:40:47.020Z,74.06
2022-09-21T20:45:49.331Z,73.93
2022-09-21T20:50:51.161Z,74.34
2022-09-21T20:55:57.703Z,73.65
2022-09-21T21:01:04.471Z,73.58
2022-09-21T21:06:18.728Z,73.66
2022-09-21T21:11:20.655Z,74.03
2022-09-21T21:16:22.910Z,74.60
2022-09-21T21:21:25.326Z,74.45
2022-09-21T21:26:50.365Z,74.36
2022-09-21T21:31:49.729Z,74.51
2022-09-21T21:36:51.508Z,74.23
2022-09-21T21:41:53.220Z,74.47
2022-09-21T21:47:02.787Z,75.08
2022-09-21T21:52:13.228Z,74.48
2022-09-21T21:57:15.026Z,74.55
2022-09-21T22:02:16.806Z,74.84
2022-09-21T22:07:18.550Z,74.72
2022-09-21T22:12:20.168Z,74.73
2022-09-21T22:17:21.907Z,74.91
2022-09-21T22:22:24.019Z,74.97
2022-09-21T22:27:25.646Z,74.53
2022-09-21T22:32:27.478Z,75.02
2022-09-21T22:37:29.135Z,75.33
2022-09-21T22:42:31.791Z,75.18
2022-09-21T22:47:33.454Z,74.99
2022-09-21T22:52:35.103Z,75.40
2022-09-21T22:57:36.843Z,75.45
2022-09-21T23:02:38.475Z,74.93
2022-09-21T23:07:40.058Z,74.88
2022-09-21T23:12:41.659Z,74.90
2022-09-21T23:17:43.603Z,75.08
2022-09-21T23:22:45.223Z,74.79
2022-09-21T23:27:46.862Z,74.60
2022-09-21T23:32:51.726Z,75.52
2022-09-21T23:37:53.366Z,75.65
2022-09-21T23:42:54.983Z,75.65
2022-09-21T23:47:56.541Z,75.52
2022-09-21T23:52:58.143Z,75.51
2022-09-21T23:57:59.781Z,75.44
